createdAt,value
2022-11-22T00:00:28.204Z,100.00
2022-11-22T00:02:57.387Z,100.00
2022-11-22T00:05:23.774Z,100.00
2022-11-22T00:07:52.597Z,100.00
2022-11-22T00:10:19.147Z,100.00
2022-11-22T00:12:45.551Z,100.00
2022-11-22T00:15:12.727Z,100.00
2022-11-22T00:17:39.714Z,100.00
2022-11-22T00:20:08.274Z,100.00
2022-11-22T00:22:38.521Z,100.00
2022-11-22T00:25:08.380Z,100.00
2022-11-22T00:27:34.877Z,100.00
2022-11-22T00:30:03.966Z,100.00
2022-11-22T00:32:30.393Z,100.00
2022-11-22T00:34:56.775Z,100.00
2022-11-22T00:37:23.210Z,100.00
2022-11-22T00:39:51.949Z,100.00
2022-11-22T00:42:20.669Z,100.00
2022-11-22T00:44:47.093Z,100.00
2022-11-22T00:47:16.016Z,100.00
2022-11-22T00:49:42.489Z,100.00
2022-11-22T00:52:08.889Z,100.00
2022-11-22T00:54:35.242Z,100.00
2022-11-22T00:57:01.588Z,100.00
2022-11-22T00:59:30.675Z,100.00
2022-11-22T01:01:57.323Z,100.00
2022-11-22T01:04:23.787Z,100.00
2022-11-22T01:06:50.184Z,100.00
2022-11-22T01:09:19.646Z,100.00
2022-11-22T01:11:46.320Z,100.00
2022-11-22T01:14:17.635Z,100.00
2022-11-22T01:16:44.646Z,100.00
2022-11-22T01:19:11.260Z,100.00
2022-11-22T01:21:37.781Z,100.00
2022-11-22T01:24:04.440Z,100.00
2022-11-22T01:26:30.844Z,100.00
2022-11-22T01:28:57.518Z,100.00
2022-11-22T01:31:24.022Z,100.00
2022-11-22T01:33:52.690Z,100.00
2022-11-22T01:36:19.156Z,100.00
2022-11-22T01:38:45.560Z,100.00
2022-11-22T01:41:11.948Z,100.00
2022-11-22T01:43:38.475Z,100.00
2022-11-22T01:46:09.808Z,100.00
2022-11-22T01:48:42.901Z,100.00
2022-11-22T01:51:18.804Z,100.00
2022-11-22T01:53:47.896Z,100.00
2022-11-22T01:56:19.612Z,100.00
2022-11-22T01:58:56.435Z,100.00
2022-11-22T02:01:25.882Z,100.00
2022-11-22T02:03:56.259Z,100.00
2022-11-22T02:06:26.092Z,100.00
2022-11-22T02:09:05.417Z,100.00
2022-11-22T02:11:36.655Z,100.00
2022-11-22T02:14:06.246Z,100.00
2022-11-22T02:16:37.073Z,100.00
2022-11-22T02:19:05.546Z,100.00
2022-11-22T02:21:32.033Z,100.00
2022-11-22T02:24:23.147Z,100.00
2022-11-22T02:26:49.547Z,100.00
2022-11-22T02:29:16.227Z,100.00
2022-11-22T02:31:47.161Z,100.00
2022-11-22T02:34:14.115Z,100.00
2022-11-22T02:36:48.834Z,100.00
2022-11-22T02:39:20.191Z,100.00
2022-11-22T02:41:48.591Z,100.00
2022-11-22T02:44:18.907Z,100.00
2022-11-22T02:46:50.875Z,100.00
2022-11-22T02:49:19.494Z,100.00
2022-11-22T02:51:46.421Z,100.00
2022-11-22T02:54:12.826Z,100.00
2022-11-22T02:56:39.386Z,100.00
2022-11-22T02:59:05.794Z,100.00
2022-11-22T03:01:32.304Z,100.00
2022-11-22T03:04:03.757Z,100.00
2022-11-22T03:06:30.167Z,100.00
2022-11-22T03:08:57.037Z,100.00
2022-11-22T03:11:24.116Z,100.00
2022-11-22T03:13:50.680Z,100.00
2022-11-22T03:16:17.023Z,100.00
2022-11-22T03:18:43.424Z,100.00
2022-11-22T03:21:12.432Z,100.00
2022-11-22T03:23:38.843Z,100.00
2022-11-22T03:26:09.794Z,100.00
2022-11-22T03:28:36.304Z,100.00
2022-11-22T03:31:05.474Z,100.00
2022-11-22T03:33:35.207Z,100.00
2022-11-22T03:36:04.302Z,100.00
2022-11-22T03:38:30.805Z,100.00
2022-11-22T03:40:57.383Z,100.00
2022-11-22T03:43:24.042Z,100.00
2022-11-22T03:45:50.516Z,100.00
2022-11-22T03:48:16.984Z,100.00
2022-11-22T03:50:46.154Z,100.00
2022-11-22T03:53:12.564Z,100.00
2022-11-22T03:55:39.344Z,100.00
2022-11-22T03:58:05.897Z,100.00
2022-11-22T04:00:32.396Z,100.00
2022-11-22T04:02:59.403Z,100.00
2022-11-22T04:05:25.737Z,100.00
2022-11-22T04:07:58.225Z,100.00
2022-11-22T04:10:25.025Z,100.00
2022-11-22T04:12:51.499Z,100.00
2022-11-22T04:15:18.171Z,100.00
2022-11-22T04:17:45.517Z,100.00
2022-11-22T04:20:34.667Z,100.00
2022-11-22T04:23:04.173Z,100.00
2022-11-22T04:25:32.120Z,100.00
2022-11-22T04:28:00.886Z,100.00
2022-11-22T04:30:46.719Z,100.00
2022-11-22T04:33:14.375Z,100.00
2022-11-22T04:35:41.709Z,100.00
2022-11-22T04:38:08.240Z,100.00
2022-11-22T04:40:34.780Z,100.00
2022-11-22T04:43:20.303Z,100.00
2022-11-22T04:45:47.066Z,100.00
2022-11-22T04:48:13.741Z,100.00
2022-11-22T04:51:04.552Z,100.00
2022-11-22T04:53:37.246Z,100.00
2022-11-22T04:56:03.819Z,100.00
2022-11-22T04:58:30.206Z,100.00
2022-11-22T05:00:56.611Z,100.00
2022-11-22T05:03:23.058Z,100.00
2022-11-22T05:05:52.053Z,100.00
2022-11-22T05:08:21.540Z,100.00
2022-11-22T05:10:58.193Z,100.00
2022-11-22T05:13:34.286Z,100.00
2022-11-22T05:16:02.306Z,100.00
2022-11-22T05:18:29.712Z,100.00
2022-11-22T05:20:56.450Z,100.00
2022-11-22T05:23:42.865Z,100.00
2022-11-22T05:26:11.752Z,100.00
2022-11-22T05:28:39.425Z,100.00
2022-11-22T05:31:10.780Z,100.00
2022-11-22T05:33:39.348Z,100.00
2022-11-22T05:36:12.186Z,100.00
2022-11-22T05:38:39.943Z,100.00
2022-11-22T05:41:09.550Z,100.00
2022-11-22T05:43:39.484Z,100.00
2022-11-22T05:46:24.211Z,100.00
2022-11-22T05:48:52.780Z,100.00
2022-11-22T05:51:24.220Z,100.00
2022-11-22T05:53:51.517Z,100.00
2022-11-22T05:56:20.958Z,100.00
2022-11-22T05:58:47.953Z,100.00
2022-11-22T06:01:19.900Z,100.00
2022-11-22T06:03:47.346Z,100.00
2022-11-22T06:06:14.182Z,100.00
2022-11-22T06:08:43.180Z,100.00
2022-11-22T06:11:14.851Z,100.00
2022-11-22T06:13:44.102Z,100.00
2022-11-22T06:16:11.547Z,100.00
2022-11-22T06:18:38.006Z,100.00
2022-11-22T06:21:11.644Z,100.00
2022-11-22T06:23:38.010Z,100.00
2022-11-22T06:26:10.950Z,100.00
2022-11-22T06:28:42.926Z,100.00
2022-11-22T06:31:15.180Z,100.00
2022-11-22T06:33:42.519Z,100.00
2022-11-22T06:36:15.018Z,100.00
2022-11-22T06:38:42.831Z,100.00
2022-11-22T06:41:11.570Z,100.00
2022-11-22T06:43:46.753Z,100.00
2022-11-22T06:46:16.244Z,100.00
2022-11-22T06:48:43.006Z,100.00
2022-11-22T06:51:20.852Z,100.00
2022-11-22T06:53:49.271Z,100.00
2022-11-22T06:56:25.286Z,100.00
2022-11-22T06:58:52.510Z,100.00
2022-11-22T07:01:22.904Z,100.00
2022-11-22T07:03:49.794Z,100.00
2022-11-22T07:06:19.552Z,100.00
2022-11-22T07:08:47.792Z,100.00
2022-11-22T07:11:22.029Z,100.00
2022-11-22T07:13:51.827Z,100.00
2022-11-22T07:16:20.370Z,100.00
2022-11-22T07:18:49.875Z,100.00
2022-11-22T07:21:18.818Z,100.00
2022-11-22T07:23:49.595Z,100.00
2022-11-22T07:26:20.026Z,100.00
2022-11-22T07:28:47.002Z,100.00
2022-11-22T07:31:15.143Z,100.00
2022-11-22T07:33:42.867Z,100.00
2022-11-22T07:36:11.911Z,100.00
2022-11-22T07:38:38.713Z,100.00
2022-11-22T07:41:06.242Z,100.00
2022-11-22T07:43:33.089Z,100.00
2022-11-22T07:46:04.389Z,100.00
2022-11-22T07:48:33.585Z,100.00
2022-11-22T07:51:04.872Z,100.00
2022-11-22T07:53:31.978Z,100.00
2022-11-22T07:56:03.481Z,100.00
2022-11-22T07:58:30.116Z,100.00
2022-11-22T08:00:56.580Z,100.00
2022-11-22T08:03:28.705Z,100.00
2022-11-22T08:06:03.298Z,100.00
2022-11-22T08:08:30.457Z,100.00
2022-11-22T08:10:56.824Z,100.00
2022-11-22T08:13:23.892Z,100.00
2022-11-22T08:15:53.294Z,100.00
2022-11-22T08:18:21.525Z,100.00
2022-11-22T08:20:48.016Z,100.00
2022-11-22T08:23:14.429Z,100.00
2022-11-22T08:25:40.871Z,100.00
2022-11-22T08:28:07.218Z,100.00
2022-11-22T08:30:33.723Z,100.00
2022-11-22T08:33:02.657Z,100.00
2022-11-22T08:35:29.049Z,100.00
2022-11-22T08:37:57.211Z,100.00
2022-11-22T08:40:24.023Z,100.00
2022-11-22T08:42:53.728Z,100.00
2022-11-22T08:45:20.215Z,100.00
2022-11-22T08:47:47.041Z,100.00
2022-11-22T08:50:13.502Z,100.00
2022-11-22T08:52:39.959Z,100.00
2022-11-22T08:55:11.521Z,100.00
2022-11-22T08:58:15.507Z,100.00
2022-11-22T09:01:21.187Z,100.00
2022-11-22T09:04:24.933Z,100.00
2022-11-22T09:10:53.861Z,100.00
2022-11-22T09:13:58.005Z,100.00
2022-11-22T09:17:02.491Z,100.00
2022-11-22T09:20:06.343Z,100.00
2022-11-22T09:23:10.097Z,100.00
2022-11-22T09:26:13.921Z,100.00
2022-11-22T09:29:18.372Z,100.00
2022-11-22T09:32:22.495Z,100.00
2022-11-22T09:35:26.629Z,100.00
2022-11-22T09:38:30.430Z,100.00
2022-11-22T09:41:34.338Z,100.00
2022-11-22T09:44:38.753Z,100.00
2022-11-22T09:47:42.547Z,97.64
2022-11-22T09:50:46.158Z,97.06
2022-11-22T09:53:50.397Z,96.64
2022-11-22T09:56:54.640Z,96.75
2022-11-22T09:59:58.877Z,98.59
2022-11-22T10:02:43.558Z,98.91
2022-11-22T10:05:27.875Z,95.86
2022-11-22T10:08:13.038Z,99.37
2022-11-22T10:10:42.745Z,97.13
2022-11-22T10:13:22.191Z,99.47
2022-11-22T10:15:54.393Z,97.22
2022-11-22T10:18:31.571Z,93.83
2022-11-22T10:20:57.970Z,96.60
2022-11-22T10:23:25.761Z,95.70
2022-11-22T10:25:55.060Z,94.72
2022-11-22T10:28:48.344Z,95.63
2022-11-22T10:31:14.665Z,94.84
2022-11-22T10:33:44.877Z,93.40
2022-11-22T10:36:26.461Z,92.29
2022-11-22T10:39:08.537Z,87.29
2022-11-22T10:41:53.076Z,92.96
2022-11-22T10:44:22.491Z,90.26
2022-11-22T10:47:13.419Z,92.93
2022-11-22T10:50:01.914Z,94.10
2022-11-22T10:52:44.640Z,93.41
2022-11-22T10:55:25.904Z,92.93
2022-11-22T10:57:58.078Z,90.60
2022-11-22T11:00:26.054Z,90.36
2022-11-22T11:03:01.484Z,88.32
2022-11-22T11:05:42.099Z,90.71
2022-11-22T11:08:54.254Z,91.99
2022-11-22T11:11:22.815Z,85.43
2022-11-22T11:14:04.649Z,89.88
2022-11-22T11:16:36.201Z,86.07
2022-11-22T11:19:17.580Z,88.33
2022-11-22T11:21:44.171Z,88.54
2022-11-22T11:24:14.099Z,86.82
2022-11-22T11:26:43.271Z,86.10
2022-11-22T11:29:18.820Z,87.52
2022-11-22T11:31:50.887Z,86.20
2022-11-22T11:34:29.548Z,85.56
2022-11-22T11:37:00.592Z,84.63
2022-11-22T11:39:32.777Z,85.20
2022-11-22T11:41:59.382Z,84.25
2022-11-22T11:44:27.413Z,84.28
2022-11-22T11:46:54.574Z,81.77
2022-11-22T11:49:24.850Z,79.60
2022-11-22T11:51:57.288Z,82.22
2022-11-22T11:54:39.032Z,80.68
2022-11-22T11:57:09.812Z,79.34
2022-11-22T11:59:36.176Z,81.37
2022-11-22T12:02:04.618Z,79.67
2022-11-22T12:04:35.206Z,77.70
2022-11-22T12:07:20.178Z,76.59
2022-11-22T12:09:48.956Z,78.53
2022-11-22T12:12:19.606Z,78.42
2022-11-22T12:15:10.316Z,78.48
2022-11-22T12:17:48.986Z,80.24
2022-11-22T12:20:39.013Z,78.21
2022-11-22T12:23:22.820Z,77.12
2022-11-22T12:25:52.429Z,78.04
2022-11-22T12:28:21.889Z,76.44
2022-11-22T12:31:11.968Z,77.40
2022-11-22T12:33:44.024Z,78.39
2022-11-22T12:36:20.317Z,76.84
2022-11-22T12:38:49.167Z,76.89
2022-11-22T12:41:18.517Z,77.98
2022-11-22T12:43:49.927Z,76.40
2022-11-22T12:46:28.809Z,78.11
2022-11-22T12:48:59.467Z,72.85
2022-11-22T12:51:28.694Z,76.02
2022-11-22T12:54:00.820Z,75.24
2022-11-22T12:56:39.303Z,75.56
2022-11-22T12:59:15.981Z,74.87
2022-11-22T13:01:42.455Z,78.01
2022-11-22T13:04:08.816Z,75.62
2022-11-22T13:06:51.965Z,76.87
2022-11-22T13:09:23.985Z,76.69
2022-11-22T13:12:11.181Z,75.57
2022-11-22T13:14:46.019Z,75.77
2022-11-22T13:17:16.051Z,74.70
2022-11-22T13:19:57.529Z,73.15
2022-11-22T13:22:42.935Z,74.10
2022-11-22T13:25:30.232Z,74.29
2022-11-22T13:28:00.765Z,74.64
2022-11-22T13:30:29.978Z,73.97
2022-11-22T13:33:00.884Z,73.98
2022-11-22T13:35:36.841Z,74.61
2022-11-22T13:38:06.896Z,76.00
2022-11-22T13:40:36.320Z,75.92
2022-11-22T13:43:15.585Z,76.48
2022-11-22T13:45:50.335Z,73.61
2022-11-22T13:48:41.589Z,77.86
2022-11-22T13:51:12.250Z,77.29
2022-11-22T13:53:43.703Z,75.72
2022-11-22T13:56:16.223Z,75.63
2022-11-22T13:58:51.060Z,76.08
2022-11-22T14:01:38.807Z,74.75
2022-11-22T14:04:19.883Z,76.09
2022-11-22T14:06:53.995Z,77.52
2022-11-22T14:09:32.643Z,78.09
2022-11-22T14:12:13.396Z,75.79
2022-11-22T14:14:51.904Z,77.66
2022-11-22T14:17:24.020Z,77.07
2022-11-22T14:20:18.544Z,76.67
2022-11-22T14:23:10.676Z,75.66
2022-11-22T14:26:00.771Z,76.69
2022-11-22T14:29:00.351Z,78.07
2022-11-22T14:31:29.996Z,79.50
2022-11-22T14:34:15.366Z,79.57
2022-11-22T14:36:42.233Z,77.88
2022-11-22T14:39:45.677Z,78.78
2022-11-22T14:42:50.874Z,77.81
2022-11-22T14:45:43.344Z,78.08
2022-11-22T14:48:18.364Z,80.02
2022-11-22T14:50:52.252Z,80.25
2022-11-22T14:53:43.650Z,81.75
2022-11-22T14:56:21.136Z,80.97
2022-11-22T14:59:19.250Z,79.92
2022-11-22T15:02:01.237Z,82.53
2022-11-22T15:09:10.957Z,82.20
2022-11-22T15:09:21.745Z,83.37
2022-11-22T15:11:01.951Z,84.26
2022-11-22T15:13:37.221Z,83.92
2022-11-22T15:59:42.995Z,90.09
2022-11-22T16:02:21.963Z,90.67
2022-11-22T16:06:05.486Z,91.86
2022-11-22T16:07:51.154Z,93.17
2022-11-22T16:10:37.196Z,91.99
2022-11-22T16:13:19.552Z,92.76
2022-11-22T16:16:14.766Z,92.05
2022-11-22T16:18:43.170Z,91.81
2022-11-22T16:21:18.205Z,93.53
2022-11-22T16:23:48.079Z,95.33
2022-11-22T16:26:17.393Z,96.48
2022-11-22T16:28:44.040Z,97.94
2022-11-22T16:31:30.285Z,98.96
2022-11-22T16:34:02.669Z,100.00
2022-11-22T16:36:29.537Z,100.00
2022-11-22T16:38:56.036Z,100.00
2022-11-22T16:41:27.709Z,100.00
2022-11-22T16:44:10.778Z,100.00
2022-11-22T16:46:37.231Z,100.00
2022-11-22T16:49:16.661Z,100.00
2022-11-22T16:51:44.642Z,100.00
2022-11-22T16:54:14.905Z,100.00
2022-11-22T16:56:41.306Z,100.00
2022-11-22T16:59:12.644Z,100.00
2022-11-22T17:01:43.529Z,100.00
2022-11-22T17:04:25.146Z,100.00
2022-11-22T17:06:54.273Z,100.00
2022-11-22T17:09:20.672Z,100.00
2022-11-22T17:11:47.130Z,100.00
2022-11-22T17:14:15.541Z,100.00
2022-11-22T17:16:42.987Z,100.00
2022-11-22T17:19:30.235Z,100.00
2022-11-22T17:21:58.777Z,100.00
2022-11-22T17:24:25.562Z,100.00
2022-11-22T17:26:51.962Z,100.00
2022-11-22T17:29:43.416Z,100.00
2022-11-22T17:32:05.095Z,100.00
2022-11-22T17:34:31.778Z,100.00
2022-11-22T17:36:58.357Z,100.00
2022-11-22T17:39:26.956Z,100.00
2022-11-22T17:41:53.419Z,100.00
2022-11-22T17:44:19.875Z,100.00
2022-11-22T17:46:47.134Z,100.00
2022-11-22T17:49:16.258Z,100.00
2022-11-22T17:51:43.473Z,100.00
2022-11-22T17:54:10.018Z,100.00
2022-11-22T17:56:37.484Z,100.00
2022-11-22T17:59:04.397Z,100.00
2022-11-22T18:01:30.927Z,100.00
2022-11-22T18:03:57.351Z,100.00
2022-11-22T18:06:26.082Z,100.00
2022-11-22T18:08:52.448Z,100.00
2022-11-22T18:11:18.980Z,100.00
2022-11-22T18:13:48.048Z,100.00
2022-11-22T18:16:17.150Z,100.00
2022-11-22T18:18:59.726Z,100.00
2022-11-22T18:21:29.876Z,100.00
2022-11-22T18:24:00.280Z,100.00
2022-11-22T18:26:42.843Z,100.00
2022-11-22T18:29:41.651Z,100.00
2022-11-22T18:31:58.892Z,100.00
2022-11-22T18:34:25.919Z,100.00
2022-11-22T18:36:55.700Z,100.00
2022-11-22T18:39:25.945Z,100.00
2022-11-22T18:41:52.487Z,100.00
2022-11-22T18:44:21.567Z,100.00
2022-11-22T18:46:48.028Z,100.00
2022-11-22T18:49:15.248Z,100.00
2022-11-22T18:51:44.028Z,100.00
2022-11-22T18:54:10.519Z,100.00
2022-11-22T18:56:39.879Z,100.00
2022-11-22T18:59:10.453Z,100.00
2022-11-22T19:01:37.119Z,100.00
2022-11-22T19:04:06.233Z,100.00
2022-11-22T19:06:32.765Z,100.00
2022-11-22T19:09:01.658Z,100.00
2022-11-22T19:11:33.351Z,100.00
2022-11-22T19:13:59.932Z,100.00
2022-11-22T19:16:30.176Z,100.00
2022-11-22T19:18:57.776Z,100.00
2022-11-22T19:21:26.876Z,100.00
2022-11-22T19:23:54.570Z,100.00
2022-11-22T19:26:23.009Z,100.00
2022-11-22T19:28:52.024Z,100.00
2022-11-22T19:31:20.286Z,100.00
2022-11-22T19:33:46.865Z,100.00
2022-11-22T19:36:21.630Z,100.00
2022-11-22T19:38:51.265Z,100.00
2022-11-22T19:41:20.355Z,100.00
2022-11-22T19:43:47.760Z,100.00
2022-11-22T19:46:14.809Z,100.00
2022-11-22T19:48:47.269Z,100.00
2022-11-22T19:51:16.486Z,100.00
2022-11-22T19:53:43.150Z,100.00
2022-11-22T19:56:15.347Z,100.00
2022-11-22T19:58:43.017Z,100.00
2022-11-22T20:01:12.346Z,100.00
2022-11-22T20:03:40.747Z,100.00
2022-11-22T20:06:11.217Z,100.00
2022-11-22T20:08:38.611Z,100.00
2022-11-22T20:11:17.853Z,100.00
2022-11-22T20:13:49.897Z,100.00
2022-11-22T20:16:22.106Z,100.00
2022-11-22T20:18:53.556Z,100.00
2022-11-22T20:21:23.893Z,100.00
2022-11-22T20:23:56.861Z,100.00
2022-11-22T20:26:24.422Z,100.00
2022-11-22T20:28:56.347Z,100.00
2022-11-22T20:31:23.706Z,100.00
2022-11-22T20:33:54.591Z,100.00
2022-11-22T20:36:26.904Z,100.00
2022-11-22T20:38:54.395Z,100.00
2022-11-22T20:41:24.263Z,100.00
2022-11-22T20:43:53.204Z,100.00
2022-11-22T20:46:25.280Z,100.00
2022-11-22T20:48:55.102Z,100.00
2022-11-22T20:51:28.582Z,100.00
2022-11-22T20:53:55.841Z,100.00
2022-11-22T20:56:25.220Z,100.00
2022-11-22T20:58:52.482Z,100.00
2022-11-22T21:01:21.343Z,100.00
2022-11-22T21:03:48.209Z,100.00
2022-11-22T21:06:16.056Z,100.00
2022-11-22T21:08:42.548Z,100.00
2022-11-22T21:11:13.295Z,100.00
2022-11-22T21:13:40.834Z,100.00
2022-11-22T21:16:24.419Z,100.00
2022-11-22T21:18:53.096Z,100.00
2022-11-22T21:21:22.725Z,100.00
2022-11-22T21:23:55.652Z,100.00
2022-11-22T21:26:23.154Z,100.00
2022-11-22T21:28:50.019Z,100.00
2022-11-22T21:31:16.544Z,100.00
2022-11-22T21:33:43.169Z,100.00
2022-11-22T21:36:12.364Z,100.00
2022-11-22T21:38:38.904Z,100.00
2022-11-22T21:41:38.925Z,100.00
2022-11-22T21:44:03.505Z,100.00
2022-11-22T21:46:29.884Z,100.00
2022-11-22T21:48:56.445Z,100.00
2022-11-22T21:51:26.455Z,100.00
2022-11-22T21:53:59.352Z,100.00
2022-11-22T21:56:26.820Z,100.00
2022-11-22T21:58:53.552Z,100.00
2022-11-22T22:01:20.014Z,100.00
2022-11-22T22:03:46.467Z,100.00
2022-11-22T22:06:15.311Z,100.00
2022-11-22T22:08:41.652Z,100.00
2022-11-22T22:11:10.828Z,100.00
2022-11-22T22:13:37.164Z,100.00
2022-11-22T22:16:12.822Z,100.00
2022-11-22T22:18:43.294Z,100.00
2022-11-22T22:21:11.821Z,100.00
2022-11-22T22:23:40.051Z,100.00
2022-11-22T22:26:11.336Z,100.00
2022-11-22T22:28:39.265Z,100.00
2022-11-22T22:31:10.658Z,100.00
2022-11-22T22:33:39.872Z,100.00
2022-11-22T22:36:11.288Z,100.00
2022-11-22T22:38:40.708Z,100.00
2022-11-22T22:41:09.552Z,100.00
2022-11-22T22:43:38.465Z,100.00
2022-11-22T22:46:17.467Z,100.00
2022-11-22T22:48:44.425Z,100.00
2022-11-22T22:51:17.678Z,100.00
2022-11-22T22:53:46.985Z,100.00
2022-11-22T22:56:18.249Z,100.00
2022-11-22T22:58:45.197Z,100.00
2022-11-22T23:01:20.712Z,100.00
2022-11-22T23:03:58.539Z,100.00
2022-11-22T23:06:26.800Z,100.00
2022-11-22T23:08:54.629Z,100.00
2022-11-22T23:11:43.843Z,100.00
2022-11-22T23:14:11.502Z,100.00
2022-11-22T23:16:40.721Z,100.00
2022-11-22T23:19:07.792Z,100.00
2022-11-22T23:21:34.604Z,100.00
2022-11-22T23:24:03.788Z,100.00
2022-11-22T23:26:30.218Z,100.00
2022-11-22T23:29:00.321Z,100.00
2022-11-22T23:31:29.291Z,100.00
2022-11-22T23:33:55.994Z,100.00
2022-11-22T23:36:23.092Z,100.00
2022-11-22T23:38:49.650Z,100.00
2022-11-22T23:41:19.898Z,100.00
2022-11-22T23:43:50.105Z,100.00
2022-11-22T23:46:16.605Z,100.00
2022-11-22T23:48:47.308Z,100.00
2022-11-22T23:51:14.854Z,100.00
2022-11-22T23:53:41.447Z,100.00
2022-11-22T23:56:21.815Z,100.00
2022-11-22T23:58:48.995Z,100.00
